createdAt,value
2017-08-30T00:02:00.375Z,26.77
2017-08-30T00:04:27.902Z,26.00
2017-08-30T00:06:55.523Z,22.80
2017-08-30T00:09:23.025Z,20.60
2017-08-30T00:11:50.517Z,22.20
2017-08-30T00:14:18.055Z,21.83
2017-08-30T00:16:46.303Z,21.20
2017-08-30T00:19:13.855Z,23.40
2017-08-30T00:21:41.410Z,23.73
2017-08-30T00:24:09.013Z,21.43
2017-08-30T00:26:37.325Z,25.97
2017-08-30T00:29:04.827Z,24.07
2017-08-30T00:31:32.386Z,25.40
2017-08-30T00:33:59.944Z,27.57
2017-08-30T00:36:27.437Z,23.97
2017-08-30T00:38:54.948Z,23.13
2017-08-30T00:41:22.577Z,22.37
2017-08-30T00:43:50.119Z,27.50
2017-08-30T00:46:17.602Z,21.20
2017-08-30T00:48:45.142Z,26.73
2017-08-30T00:51:12.611Z,24.37
2017-08-30T00:53:40.176Z,23.80
2017-08-30T00:56:07.836Z,23.20
2017-08-30T00:58:35.326Z,23.30
2017-08-30T01:01:03.572Z,23.20
2017-08-30T01:03:31.121Z,27.73
2017-08-30T01:05:58.796Z,22.70
2017-08-30T01:08:26.281Z,23.63
2017-08-30T01:10:53.773Z,21.97
2017-08-30T01:13:21.355Z,21.60
2017-08-30T01:15:48.897Z,21.67
2017-08-30T01:18:16.430Z,19.63
2017-08-30T01:20:43.970Z,21.37
2017-08-30T01:23:11.457Z,23.03
2017-08-30T01:25:38.989Z,24.13
2017-08-30T01:28:06.635Z,28.33
2017-08-30T01:30:34.196Z,23.60
2017-08-30T01:33:01.718Z,20.90
2017-08-30T01:35:29.251Z,23.60
2017-08-30T01:37:57.588Z,23.63
2017-08-30T01:40:25.115Z,19.23
2017-08-30T01:42:52.651Z,25.00
2017-08-30T01:45:20.178Z,20.50
2017-08-30T01:47:48.462Z,21.93
2017-08-30T01:50:15.965Z,22.27
2017-08-30T01:52:43.484Z,22.57
2017-08-30T01:55:11.033Z,21.20
2017-08-30T01:57:38.596Z,22.60
2017-08-30T02:00:06.144Z,19.60
2017-08-30T02:02:33.665Z,21.60
2017-08-30T02:05:01.202Z,19.90
2017-08-30T02:07:28.782Z,20.37
2017-08-30T02:09:56.307Z,20.87
2017-08-30T02:12:24.672Z,23.50
2017-08-30T02:14:52.182Z,22.43
2017-08-30T02:17:19.927Z,19.13
2017-08-30T02:19:47.450Z,17.97
2017-08-30T02:22:16.696Z,25.07
2017-08-30T02:24:44.243Z,18.80
2017-08-30T02:27:11.901Z,23.00
2017-08-30T02:29:40.188Z,21.47
2017-08-30T02:32:07.723Z,24.93
2017-08-30T02:34:35.233Z,23.83
2017-08-30T02:37:02.872Z,22.27
2017-08-30T02:39:30.385Z,21.80
2017-08-30T02:41:57.937Z,21.90
2017-08-30T02:44:25.621Z,24.13
2017-08-30T02:46:53.153Z,23.20
2017-08-30T02:49:20.627Z,22.63
2017-08-30T02:51:48.158Z,22.57
2017-08-30T02:54:15.650Z,22.90
2017-08-30T02:56:43.157Z,21.47
2017-08-30T02:59:10.807Z,27.30
2017-08-30T03:01:38.406Z,20.57
2017-08-30T03:04:05.920Z,22.13
2017-08-30T03:06:33.509Z,22.13
2017-08-30T03:09:01.048Z,21.27
2017-08-30T03:11:29.979Z,28.67
2017-08-30T03:13:57.615Z,25.80
2017-08-30T03:16:25.125Z,26.10
2017-08-30T03:18:52.675Z,25.77
2017-08-30T03:21:21.113Z,21.00
2017-08-30T03:23:48.636Z,23.63
2017-08-30T03:26:16.169Z,26.30
2017-08-30T03:28:43.728Z,26.63
2017-08-30T03:31:11.329Z,28.10
2017-08-30T03:33:38.897Z,21.43
2017-08-30T03:36:07.204Z,19.33
2017-08-30T03:38:34.740Z,26.20
2017-08-30T03:41:02.335Z,40.67
2017-08-30T03:43:29.877Z,25.30
2017-08-30T03:45:57.368Z,22.50
2017-08-30T03:48:24.870Z,29.80
2017-08-30T03:50:52.428Z,22.67
2017-08-30T03:53:20.704Z,22.73
2017-08-30T03:55:48.255Z,24.63
2017-08-30T03:58:15.766Z,24.70
2017-08-30T04:00:43.364Z,24.00
2017-08-30T04:03:12.305Z,21.60
2017-08-30T04:05:40.079Z,21.70
2017-08-30T04:08:07.629Z,23.70
2017-08-30T04:10:35.184Z,26.80
2017-08-30T04:13:02.762Z,19.93
2017-08-30T04:15:30.271Z,25.80
2017-08-30T04:17:57.921Z,28.47
2017-08-30T04:20:25.426Z,22.80
2017-08-30T04:22:52.902Z,26.97
2017-08-30T04:25:20.515Z,27.43
2017-08-30T04:27:48.043Z,21.83
2017-08-30T04:30:15.594Z,25.13
2017-08-30T04:32:43.082Z,19.23
2017-08-30T04:35:10.600Z,23.70
2017-08-30T04:37:38.124Z,29.43
2017-08-30T04:40:05.715Z,26.00
2017-08-30T04:42:33.218Z,23.73
2017-08-30T04:45:00.804Z,28.20
2017-08-30T04:47:28.293Z,20.70
2017-08-30T04:49:55.833Z,22.67
2017-08-30T04:52:23.467Z,30.67
2017-08-30T04:54:51.825Z,25.00
2017-08-30T04:57:19.348Z,30.90
2017-08-30T04:59:46.866Z,23.30
2017-08-30T05:02:14.571Z,23.13
2017-08-30T05:04:42.148Z,22.47
2017-08-30T05:07:09.834Z,21.67
2017-08-30T05:09:37.414Z,21.03
2017-08-30T05:12:04.940Z,21.17
2017-08-30T05:14:32.592Z,22.23
2017-08-30T05:17:00.176Z,22.43
2017-08-30T05:19:27.677Z,21.67
2017-08-30T05:21:55.209Z,27.10
2017-08-30T05:24:22.691Z,22.73
2017-08-30T05:26:50.281Z,22.20
2017-08-30T05:29:17.782Z,20.33
2017-08-30T05:31:45.312Z,21.73
2017-08-30T05:34:12.870Z,25.57
2017-08-30T05:36:40.366Z,21.70
2017-08-30T05:39:08.142Z,28.17
2017-08-30T05:41:35.705Z,21.30
2017-08-30T05:44:03.341Z,21.83
2017-08-30T05:46:31.759Z,30.43
2017-08-30T05:48:59.701Z,26.13
2017-08-30T05:51:27.354Z,27.40
2017-08-30T05:53:55.611Z,27.00
2017-08-30T05:56:23.118Z,29.97
2017-08-30T05:58:50.786Z,26.43
2017-08-30T06:01:18.331Z,44.30
2017-08-30T06:03:45.839Z,36.30
2017-08-30T06:06:13.338Z,26.53
2017-08-30T06:08:41.591Z,26.50
2017-08-30T06:11:09.512Z,27.17
2017-08-30T06:13:37.033Z,26.00
2017-08-30T06:16:04.597Z,21.10
2017-08-30T06:18:32.093Z,22.63
2017-08-30T06:20:59.711Z,26.70
2017-08-30T06:23:27.347Z,25.73
2017-08-30T06:25:54.834Z,27.93
2017-08-30T06:28:22.364Z,20.33
2017-08-30T06:30:49.837Z,22.50
2017-08-30T06:33:17.478Z,24.33
2017-08-30T06:35:45.036Z,26.63
2017-08-30T06:38:13.316Z,24.27
2017-08-30T06:40:41.147Z,31.47
2017-08-30T06:43:09.073Z,22.40
2017-08-30T06:45:36.671Z,19.77
2017-08-30T06:48:04.202Z,23.00
2017-08-30T06:50:31.696Z,21.20
2017-08-30T06:52:59.285Z,20.10
2017-08-30T06:55:26.799Z,20.00
2017-08-30T06:57:54.502Z,20.67
2017-08-30T07:00:22.904Z,19.27
2017-08-30T07:02:50.398Z,21.63
2017-08-30T07:05:18.538Z,15.70
2017-08-30T07:07:46.232Z,19.30
2017-08-30T07:10:13.773Z,16.87
2017-08-30T07:12:41.417Z,22.90
2017-08-30T07:15:09.065Z,19.70
2017-08-30T07:17:36.619Z,25.47
2017-08-30T07:20:04.253Z,25.30
2017-08-30T07:22:31.765Z,23.13
2017-08-30T07:24:59.588Z,20.13
2017-08-30T07:27:27.102Z,24.03
2017-08-30T07:29:54.652Z,19.07
2017-08-30T07:32:22.256Z,22.00
2017-08-30T07:34:49.750Z,18.20
2017-08-30T07:37:17.235Z,20.10
2017-08-30T07:39:44.773Z,21.40
2017-08-30T07:42:12.409Z,25.40
2017-08-30T07:44:40.000Z,16.80
2017-08-30T07:47:07.548Z,16.60
2017-08-30T07:49:35.060Z,17.37
2017-08-30T07:52:02.594Z,23.70
2017-08-30T07:54:30.979Z,23.40
2017-08-30T07:56:58.618Z,18.23
2017-08-30T07:59:26.205Z,21.03
2017-08-30T08:01:53.754Z,27.60
2017-08-30T08:04:21.278Z,21.37
2017-08-30T08:06:48.861Z,17.87
2017-08-30T08:09:16.352Z,19.03
2017-08-30T08:11:44.601Z,22.80
2017-08-30T08:14:12.127Z,15.60
2017-08-30T08:16:39.768Z,19.67
2017-08-30T08:19:07.299Z,18.50
2017-08-30T08:21:34.858Z,19.00
2017-08-30T08:24:02.523Z,15.70
2017-08-30T08:26:30.132Z,19.00
2017-08-30T08:28:57.681Z,18.53
2017-08-30T08:31:25.163Z,28.87
2017-08-30T08:33:52.754Z,14.73
2017-08-30T08:36:20.254Z,17.50
2017-08-30T08:38:47.833Z,17.30
2017-08-30T08:41:15.380Z,19.23
2017-08-30T08:43:43.010Z,13.60
2017-08-30T08:46:10.852Z,19.10
2017-08-30T08:48:38.370Z,19.73
2017-08-30T08:51:05.898Z,15.10
2017-08-30T08:53:33.444Z,18.63
2017-08-30T08:56:01.965Z,15.53
2017-08-30T08:58:30.285Z,16.20
2017-08-30T09:00:58.293Z,16.70
2017-08-30T09:03:26.145Z,13.57
2017-08-30T09:05:53.723Z,13.67
2017-08-30T09:08:21.334Z,18.20
2017-08-30T09:10:48.805Z,15.90
2017-08-30T09:13:16.337Z,18.50
2017-08-30T09:15:44.699Z,19.50
2017-08-30T09:18:12.225Z,13.33
2017-08-30T09:20:39.823Z,13.93
2017-08-30T09:23:07.375Z,17.80
2017-08-30T09:25:35.015Z,20.13
2017-08-30T09:28:02.589Z,13.10
2017-08-30T09:30:30.137Z,14.30
2017-08-30T09:32:57.698Z,13.73
2017-08-30T09:35:25.194Z,15.20
2017-08-30T09:37:52.766Z,21.33
2017-08-30T09:40:20.360Z,15.93
2017-08-30T09:42:47.860Z,13.40
2017-08-30T09:45:15.357Z,13.87
2017-08-30T09:47:42.876Z,13.60
2017-08-30T09:50:10.378Z,8.67
2017-08-30T09:52:37.976Z,12.60
2017-08-30T09:55:05.495Z,17.63
2017-08-30T09:57:33.017Z,17.10
2017-08-30T10:00:01.301Z,12.77
2017-08-30T10:02:29.057Z,12.63
2017-08-30T10:04:56.574Z,10.47
2017-08-30T10:07:24.070Z,11.40
2017-08-30T10:09:51.557Z,26.63
2017-08-30T10:12:19.908Z,14.33
2017-08-30T10:14:47.491Z,13.80
2017-08-30T10:17:14.978Z,9.50
2017-08-30T10:19:42.593Z,14.47
2017-08-30T10:22:10.269Z,13.97
2017-08-30T10:24:37.988Z,14.27
2017-08-30T10:27:05.538Z,12.40
2017-08-30T10:29:33.025Z,12.07
2017-08-30T10:32:00.577Z,19.43
2017-08-30T10:34:28.929Z,12.30
2017-08-30T10:36:58.440Z,12.70
2017-08-30T10:39:25.931Z,12.23
2017-08-30T10:41:54.259Z,14.97
2017-08-30T10:44:21.861Z,11.43
2017-08-30T10:46:49.377Z,14.83
2017-08-30T10:49:16.884Z,14.13
2017-08-30T10:51:45.123Z,15.13
2017-08-30T10:54:12.740Z,13.67
2017-08-30T10:56:40.249Z,9.93
2017-08-30T10:59:07.815Z,12.83
2017-08-30T11:01:35.321Z,11.10
2017-08-30T11:04:02.831Z,13.60
2017-08-30T11:06:30.369Z,12.00
2017-08-30T11:08:58.135Z,8.80
2017-08-30T11:11:25.719Z,9.17
2017-08-30T11:13:53.198Z,11.03
2017-08-30T11:16:20.805Z,9.93
2017-08-30T11:18:48.401Z,8.77
2017-08-30T11:21:16.221Z,11.57
2017-08-30T11:23:43.775Z,13.60
2017-08-30T11:26:11.286Z,13.03
2017-08-30T11:28:38.786Z,13.90
2017-08-30T11:31:06.402Z,12.17
2017-08-30T11:33:33.917Z,22.40
2017-08-30T11:36:01.458Z,21.40
2017-08-30T11:38:28.999Z,19.47
2017-08-30T11:40:56.498Z,16.03
2017-08-30T11:43:24.847Z,12.43
2017-08-30T11:45:52.340Z,12.60
2017-08-30T11:48:19.930Z,14.37
2017-08-30T11:50:47.423Z,16.93
2017-08-30T11:53:14.904Z,14.30
2017-08-30T11:55:42.646Z,14.83
2017-08-30T11:58:10.236Z,21.93
2017-08-30T12:00:37.857Z,13.70
2017-08-30T12:03:05.374Z,16.63
2017-08-30T12:05:32.868Z,19.30
2017-08-30T12:08:00.578Z,14.43
2017-08-30T12:10:28.865Z,16.33
2017-08-30T12:12:56.373Z,18.57
2017-08-30T12:15:24.046Z,15.43
2017-08-30T12:17:51.627Z,19.37
2017-08-30T12:20:19.871Z,17.83
2017-08-30T12:22:47.478Z,14.07
2017-08-30T12:25:14.990Z,20.30
2017-08-30T12:27:42.530Z,11.50
2017-08-30T12:30:10.196Z,22.23
2017-08-30T12:32:37.702Z,13.77
2017-08-30T12:35:05.225Z,19.57
2017-08-30T12:37:38.505Z,13.20
2017-08-30T12:40:06.015Z,14.90
2017-08-30T12:42:34.396Z,21.27
2017-08-30T12:45:01.958Z,21.20
2017-08-30T12:47:29.467Z,21.00
2017-08-30T12:49:57.003Z,16.90
2017-08-30T12:52:24.549Z,20.87
2017-08-30T12:54:52.071Z,21.67
2017-08-30T12:57:19.770Z,17.90
2017-08-30T12:59:47.380Z,16.70
2017-08-30T13:02:14.872Z,27.53
2017-08-30T13:04:42.373Z,21.63
2017-08-30T13:07:10.200Z,13.83
2017-08-30T13:09:38.491Z,19.67
2017-08-30T13:12:06.016Z,19.47
2017-08-30T13:14:33.497Z,19.40
2017-08-30T13:17:03.675Z,12.80
2017-08-30T13:19:31.249Z,21.50
2017-08-30T13:21:58.927Z,17.77
2017-08-30T13:24:26.485Z,15.93
2017-08-30T13:26:54.763Z,23.33
2017-08-30T13:29:23.187Z,18.93
2017-08-30T13:31:50.701Z,20.90
2017-08-30T13:34:18.271Z,18.67
2017-08-30T13:36:46.791Z,17.20
2017-08-30T13:39:14.298Z,20.60
2017-08-30T13:41:41.781Z,18.77
2017-08-30T13:44:09.571Z,26.40
2017-08-30T13:46:37.192Z,17.80
2017-08-30T13:49:04.782Z,15.00
2017-08-30T13:51:32.344Z,20.53
2017-08-30T13:54:00.326Z,16.50
2017-08-30T13:56:28.025Z,15.50
2017-08-30T13:58:56.306Z,20.67
2017-08-30T14:01:23.841Z,23.43
2017-08-30T14:03:51.346Z,18.30
2017-08-30T14:06:18.845Z,12.27
2017-08-30T14:08:46.412Z,20.03
2017-08-30T14:11:13.929Z,14.80
2017-08-30T14:13:41.442Z,19.30
2017-08-30T14:16:09.708Z,16.93
2017-08-30T14:18:37.975Z,20.90
2017-08-30T14:21:05.579Z,14.77
2017-08-30T14:23:33.050Z,19.80
2017-08-30T14:26:00.643Z,21.17
2017-08-30T14:28:28.131Z,18.33
2017-08-30T14:30:55.673Z,24.13
2017-08-30T14:33:23.168Z,21.83
2017-08-30T14:35:50.710Z,21.33
2017-08-30T14:38:18.336Z,20.50
2017-08-30T14:40:45.853Z,19.13
2017-08-30T14:43:13.336Z,16.40
2017-08-30T14:45:40.832Z,22.40
2017-08-30T14:48:08.737Z,21.87
2017-08-30T14:50:36.247Z,20.07
2017-08-30T14:53:03.741Z,20.43
2017-08-30T14:55:31.311Z,19.57
2017-08-30T14:57:58.848Z,14.90
2017-08-30T15:00:26.378Z,17.80
2017-08-30T15:02:53.950Z,19.03
2017-08-30T15:05:21.442Z,14.10
2017-08-30T15:07:49.048Z,14.20
2017-08-30T15:10:16.526Z,20.33
2017-08-30T15:12:44.147Z,16.17
2017-08-30T15:15:11.702Z,23.33
2017-08-30T15:17:39.283Z,15.00
2017-08-30T15:20:06.793Z,22.83
2017-08-30T15:22:34.328Z,12.47
2017-08-30T15:25:01.838Z,24.83
2017-08-30T15:27:29.355Z,17.00
2017-08-30T15:29:57.630Z,15.17
2017-08-30T15:32:25.909Z,19.17
2017-08-30T15:34:53.417Z,18.13
2017-08-30T15:37:20.935Z,20.70
2017-08-30T15:39:48.473Z,16.60
2017-08-30T15:42:16.749Z,14.90
2017-08-30T15:44:44.311Z,24.87
2017-08-30T15:47:11.821Z,18.87
2017-08-30T15:49:39.388Z,17.50
2017-08-30T15:52:06.932Z,14.70
2017-08-30T15:54:34.460Z,16.60
2017-08-30T15:57:02.042Z,19.77
2017-08-30T15:59:29.589Z,16.77
2017-08-30T16:01:57.094Z,12.53
2017-08-30T16:04:24.614Z,16.40
2017-08-30T16:06:52.284Z,16.87
2017-08-30T16:09:19.786Z,19.73
2017-08-30T16:11:47.298Z,16.80
2017-08-30T16:14:14.796Z,22.17
2017-08-30T16:16:42.320Z,13.23
2017-08-30T16:19:10.089Z,18.43
2017-08-30T16:21:37.570Z,22.67
2017-08-30T16:24:05.354Z,18.37
2017-08-30T16:26:32.884Z,20.30
2017-08-30T16:29:00.441Z,16.70
2017-08-30T16:31:28.017Z,14.73
2017-08-30T16:33:55.529Z,15.53
2017-08-30T16:36:23.778Z,21.13
2017-08-30T16:38:51.270Z,18.20
2017-08-30T16:41:18.812Z,15.40
2017-08-30T16:43:46.347Z,13.57
2017-08-30T16:46:13.996Z,17.87
2017-08-30T16:48:41.562Z,20.53
2017-08-30T16:51:09.292Z,17.13
2017-08-30T16:53:36.773Z,25.37
2017-08-30T16:56:04.337Z,18.30
2017-08-30T16:58:31.924Z,17.97
2017-08-30T17:00:59.754Z,16.23
2017-08-30T17:03:27.269Z,26.93
2017-08-30T17:05:54.778Z,16.17
2017-08-30T17:08:22.360Z,23.23
2017-08-30T17:10:49.895Z,20.70
2017-08-30T17:13:17.367Z,21.13
2017-08-30T17:15:44.990Z,15.40
2017-08-30T17:18:12.477Z,13.63
2017-08-30T17:20:40.057Z,16.77
2017-08-30T17:23:07.857Z,21.07
2017-08-30T17:25:35.396Z,18.40
2017-08-30T17:28:03.065Z,16.10
2017-08-30T17:30:30.582Z,19.00
2017-08-30T17:32:58.256Z,16.63
2017-08-30T17:35:25.816Z,24.80
2017-08-30T17:37:53.321Z,14.23
2017-08-30T17:40:20.856Z,21.63
2017-08-30T17:42:48.366Z,16.67
2017-08-30T17:45:15.862Z,20.00
2017-08-30T17:47:43.379Z,19.40
2017-08-30T17:50:10.986Z,16.73
2017-08-30T17:52:38.488Z,18.10
2017-08-30T17:55:06.007Z,23.70
2017-08-30T17:57:33.496Z,14.17
2017-08-30T18:00:01.845Z,15.13
2017-08-30T18:02:29.352Z,16.33
2017-08-30T18:04:56.847Z,18.50
2017-08-30T18:07:24.369Z,22.30
2017-08-30T18:09:51.904Z,23.97
2017-08-30T18:12:19.503Z,18.03
2017-08-30T18:14:47.043Z,18.97
2017-08-30T18:17:14.614Z,20.47
2017-08-30T18:19:42.898Z,21.30
2017-08-30T18:22:10.404Z,22.17
2017-08-30T18:24:37.998Z,19.47
2017-08-30T18:27:05.488Z,22.50
2017-08-30T18:29:33.017Z,27.97
2017-08-30T18:32:00.546Z,20.97
2017-08-30T18:34:28.111Z,21.30
2017-08-30T18:36:55.683Z,23.60
2017-08-30T18:39:23.241Z,21.27
2017-08-30T18:41:50.921Z,18.90
2017-08-30T18:44:18.458Z,20.93
2017-08-30T18:46:45.996Z,18.20
2017-08-30T18:49:13.670Z,22.30
2017-08-30T18:51:41.254Z,26.23
2017-08-30T18:54:09.179Z,20.60
2017-08-30T18:56:36.699Z,29.23
2017-08-30T18:59:04.237Z,27.00
2017-08-30T19:01:31.773Z,24.17
2017-08-30T19:03:59.574Z,19.37
2017-08-30T19:06:27.858Z,20.70
2017-08-30T19:08:55.385Z,21.10
2017-08-30T19:11:22.995Z,23.83
2017-08-30T19:13:50.546Z,22.63
2017-08-30T19:16:18.220Z,29.70
2017-08-30T19:18:45.717Z,20.40
2017-08-30T19:21:13.334Z,22.57
2017-08-30T19:23:40.921Z,21.63
2017-08-30T19:26:08.708Z,24.23
2017-08-30T19:28:36.214Z,19.00
2017-08-30T19:31:03.815Z,22.57
2017-08-30T19:33:31.309Z,28.50
2017-08-30T19:35:58.817Z,20.33
2017-08-30T19:38:26.367Z,20.13
2017-08-30T19:40:54.742Z,24.83
2017-08-30T19:43:22.254Z,23.63
2017-08-30T19:45:49.793Z,24.63
2017-08-30T19:48:17.287Z,16.73
2017-08-30T19:50:45.710Z,21.70
2017-08-30T19:53:13.244Z,21.63
2017-08-30T19:55:40.829Z,18.23
2017-08-30T19:58:08.846Z,27.93
2017-08-30T20:00:37.144Z,28.87
2017-08-30T20:03:04.833Z,21.73
2017-08-30T20:05:32.360Z,21.03
2017-08-30T20:08:00.053Z,24.70
2017-08-30T20:10:27.560Z,26.30
2017-08-30T20:12:55.055Z,21.10
2017-08-30T20:15:22.619Z,29.83
2017-08-30T20:17:50.184Z,27.83
2017-08-30T20:20:17.697Z,27.60
2017-08-30T20:22:45.273Z,22.90
2017-08-30T20:25:12.824Z,25.20
2017-08-30T20:27:40.531Z,25.10
2017-08-30T20:30:08.084Z,25.90
2017-08-30T20:32:35.754Z,19.50
2017-08-30T20:35:03.434Z,25.03
2017-08-30T20:37:30.988Z,21.00
2017-08-30T20:39:58.484Z,26.53
2017-08-30T20:42:26.022Z,26.70
2017-08-30T20:44:53.581Z,28.50
2017-08-30T20:47:21.109Z,30.37
2017-08-30T20:49:48.630Z,27.23
2017-08-30T20:52:17.051Z,30.60
2017-08-30T20:54:44.563Z,26.77
2017-08-30T20:57:12.954Z,26.87
2017-08-30T20:59:40.539Z,22.53
2017-08-30T21:02:08.393Z,31.93
2017-08-30T21:04:36.092Z,25.83
2017-08-30T21:07:03.613Z,23.17
2017-08-30T21:09:31.133Z,23.93
2017-08-30T21:11:58.704Z,25.97
2017-08-30T21:14:27.035Z,31.43
2017-08-30T21:16:54.617Z,24.50
2017-08-30T21:19:22.167Z,33.13
2017-08-30T21:21:49.670Z,20.53
2017-08-30T21:24:17.960Z,26.80
2017-08-30T21:26:45.456Z,34.70
2017-08-30T21:29:12.961Z,23.60
2017-08-30T21:31:40.478Z,27.27
2017-08-30T21:34:08.442Z,29.53
2017-08-30T21:36:35.956Z,29.17
2017-08-30T21:39:03.581Z,29.07
2017-08-30T21:41:31.107Z,31.17
2017-08-30T21:43:58.714Z,37.03
2017-08-30T21:46:27.123Z,37.60
2017-08-30T21:48:54.743Z,27.03
2017-08-30T21:51:22.249Z,25.90
2017-08-30T21:53:49.787Z,34.47
2017-08-30T21:56:17.431Z,24.37
2017-08-30T21:58:44.994Z,27.70
2017-08-30T22:01:13.293Z,30.00
2017-08-30T22:03:40.842Z,23.67
2017-08-30T22:06:08.478Z,30.40
2017-08-30T22:08:36.017Z,26.33
2017-08-30T22:11:03.497Z,22.77
2017-08-30T22:13:31.052Z,30.53
2017-08-30T22:15:58.603Z,28.13
2017-08-30T22:18:26.277Z,28.27
2017-08-30T22:20:53.822Z,30.13
2017-08-30T22:23:21.477Z,28.37
2017-08-30T22:25:48.971Z,33.30
2017-08-30T22:28:16.494Z,31.13
2017-08-30T22:30:44.034Z,30.70
2017-08-30T22:33:11.511Z,33.63
2017-08-30T22:35:39.014Z,27.17
2017-08-30T22:38:06.712Z,33.93
2017-08-30T22:40:34.337Z,29.97
2017-08-30T22:43:01.910Z,29.27
2017-08-30T22:45:29.459Z,26.30
2017-08-30T22:47:57.061Z,25.90
2017-08-30T22:50:24.596Z,29.73
2017-08-30T22:52:52.123Z,27.80
2017-08-30T22:55:19.642Z,22.47
2017-08-30T22:57:47.307Z,30.07
2017-08-30T23:00:14.805Z,24.90
2017-08-30T23:02:42.377Z,27.53
2017-08-30T23:05:09.986Z,37.97
2017-08-30T23:07:37.548Z,28.83
2017-08-30T23:10:05.100Z,29.40
2017-08-30T23:12:32.699Z,31.43
2017-08-30T23:15:01.039Z,26.53
2017-08-30T23:17:28.580Z,32.13
2017-08-30T23:19:56.104Z,30.87
2017-08-30T23:22:23.798Z,28.10
2017-08-30T23:24:51.377Z,34.23
2017-08-30T23:27:18.880Z,35.53
2017-08-30T23:29:47.210Z,27.30
2017-08-30T23:32:14.761Z,32.03
2017-08-30T23:34:42.348Z,23.50
2017-08-30T23:37:09.922Z,30.43
2017-08-30T23:39:37.474Z,31.63
2017-08-30T23:42:05.111Z,32.83
2017-08-30T23:44:32.602Z,24.57
2017-08-30T23:47:00.303Z,26.43
2017-08-30T23:49:28.032Z,24.03
2017-08-30T23:51:55.591Z,26.17
2017-08-30T23:54:23.222Z,29.10
2017-08-30T23:56:50.749Z,23.43
2017-08-30T23:59:18.368Z,27.17
